sensor_id;sensor_type;location;lat;lon;timestamp;P1;durP1;ratioP1;P2;durP2;ratioP2
13520;SDS011;6832;51.186;3.236;2022-09-12T00:02:17;13.77;;;9.97;;
13520;SDS011;6832;51.186;3.236;2022-09-12T00:04:45;10.97;;;9.10;;
13520;SDS011;6832;51.186;3.236;2022-09-12T00:07:12;14.50;;;10.87;;
13520;SDS011;6832;51.186;3.236;2022-09-12T00:09:45;13.17;;;10.80;;
13520;SDS011;6832;51.186;3.236;2022-09-12T00:12:13;14.60;;;11.33;;
13520;SDS011;6832;51.186;3.236;2022-09-12T00:14:44;12.47;;;10.77;;
13520;SDS011;6832;51.186;3.236;2022-09-12T00:17:12;18.33;;;11.90;;
13520;SDS011;6832;51.186;3.236;2022-09-12T00:19:40;13.07;;;10.27;;
13520;SDS011;6832;51.186;3.236;2022-09-12T00:22:08;21.70;;;13.20;;
13520;SDS011;6832;51.186;3.236;2022-09-12T00:24:35;14.67;;;10.77;;
13520;SDS011;6832;51.186;3.236;2022-09-12T00:27:19;19.80;;;12.17;;
13520;SDS011;6832;51.186;3.236;2022-09-12T00:29:49;14.03;;;10.93;;
13520;SDS011;6832;51.186;3.236;2022-09-12T00:32:18;14.43;;;10.20;;
13520;SDS011;6832;51.186;3.236;2022-09-12T00:34:47;13.87;;;11.13;;
13520;SDS011;6832;51.186;3.236;2022-09-12T00:37:15;13.60;;;10.27;;
13520;SDS011;6832;51.186;3.236;2022-09-12T00:39:48;14.93;;;10.33;;
13520;SDS011;6832;51.186;3.236;2022-09-12T00:42:16;17.33;;;11.57;;
13520;SDS011;6832;51.186;3.236;2022-09-12T00:44:55;10.70;;;9.60;;
13520;SDS011;6832;51.186;3.236;2022-09-12T00:47:24;13.47;;;10.17;;
13520;SDS011;6832;51.186;3.236;2022-09-12T00:49:57;16.23;;;11.33;;
13520;SDS011;6832;51.186;3.236;2022-09-12T00:52:33;12.17;;;10.63;;
13520;SDS011;6832;51.186;3.236;2022-09-12T00:57:41;13.30;;;10.80;;
13520;SDS011;6832;51.186;3.236;2022-09-12T01:00:17;14.97;;;11.23;;
13520;SDS011;6832;51.186;3.236;2022-09-12T01:02:49;13.70;;;10.97;;
13520;SDS011;6832;51.186;3.236;2022-09-12T01:05:21;14.07;;;10.83;;
13520;SDS011;6832;51.186;3.236;2022-09-12T01:07:50;13.10;;;11.27;;
13520;SDS011;6832;51.186;3.236;2022-09-12T01:10:18;21.83;;;13.33;;
13520;SDS011;6832;51.186;3.236;2022-09-12T01:12:46;12.73;;;11.40;;
13520;SDS011;6832;51.186;3.236;2022-09-12T01:15:24;12.40;;;10.63;;
13520;SDS011;6832;51.186;3.236;2022-09-12T01:17:59;11.60;;;10.27;;
13520;SDS011;6832;51.186;3.236;2022-09-12T01:23:38;18.57;;;12.20;;
13520;SDS011;6832;51.186;3.236;2022-09-12T01:26:50;12.07;;;10.73;;
13520;SDS011;6832;51.186;3.236;2022-09-12T01:29:47;12.73;;;11.40;;
13520;SDS011;6832;51.186;3.236;2022-09-12T01:32:44;14.90;;;11.43;;
13520;SDS011;6832;51.186;3.236;2022-09-12T01:35:32;19.00;;;12.40;;
13520;SDS011;6832;51.186;3.236;2022-09-12T01:38:07;12.53;;;10.30;;
13520;SDS011;6832;51.186;3.236;2022-09-12T01:40:49;13.90;;;10.70;;
13520;SDS011;6832;51.186;3.236;2022-09-12T01:43:26;16.37;;;10.47;;
13520;SDS011;6832;51.186;3.236;2022-09-12T01:46:05;19.37;;;12.87;;
13520;SDS011;6832;51.186;3.236;2022-09-12T01:48:43;13.07;;;10.77;;
13520;SDS011;6832;51.186;3.236;2022-09-12T01:51:17;14.77;;;11.40;;
13520;SDS011;6832;51.186;3.236;2022-09-12T01:53:53;13.60;;;11.50;;
13520;SDS011;6832;51.186;3.236;2022-09-12T01:56:24;17.83;;;13.00;;
13520;SDS011;6832;51.186;3.236;2022-09-12T01:58:55;21.50;;;14.40;;
13520;SDS011;6832;51.186;3.236;2022-09-12T02:01:30;20.20;;;12.53;;
13520;SDS011;6832;51.186;3.236;2022-09-12T02:04:02;21.70;;;13.17;;
13520;SDS011;6832;51.186;3.236;2022-09-12T02:06:35;15.73;;;11.73;;
13520;SDS011;6832;51.186;3.236;2022-09-12T02:09:07;12.93;;;11.53;;
13520;SDS011;6832;51.186;3.236;2022-09-12T02:11:41;15.47;;;12.40;;
13520;SDS011;6832;51.186;3.236;2022-09-12T02:14:10;17.17;;;12.87;;
13520;SDS011;6832;51.186;3.236;2022-09-12T02:16:43;17.73;;;13.43;;
13520;SDS011;6832;51.186;3.236;2022-09-12T02:19:19;16.43;;;11.13;;
13520;SDS011;6832;51.186;3.236;2022-09-12T02:21:49;14.70;;;12.00;;
13520;SDS011;6832;51.186;3.236;2022-09-12T02:24:20;15.30;;;12.33;;
13520;SDS011;6832;51.186;3.236;2022-09-12T02:26:58;14.60;;;11.67;;
13520;SDS011;6832;51.186;3.236;2022-09-12T02:29:30;14.93;;;13.03;;
13520;SDS011;6832;51.186;3.236;2022-09-12T02:31:58;15.53;;;12.63;;
13520;SDS011;6832;51.186;3.236;2022-09-12T02:37:09;17.80;;;11.17;;
13520;SDS011;6832;51.186;3.236;2022-09-12T02:39:50;12.10;;;11.00;;
13520;SDS011;6832;51.186;3.236;2022-09-12T02:42:18;16.43;;;12.13;;
13520;SDS011;6832;51.186;3.236;2022-09-12T02:44:46;13.63;;;11.23;;
13520;SDS011;6832;51.186;3.236;2022-09-12T02:47:16;13.90;;;11.17;;
13520;SDS011;6832;51.186;3.236;2022-09-12T02:49:53;16.43;;;12.63;;
13520;SDS011;6832;51.186;3.236;2022-09-12T02:52:23;13.60;;;11.73;;
13520;SDS011;6832;51.186;3.236;2022-09-12T02:54:51;14.53;;;11.50;;
13520;SDS011;6832;51.186;3.236;2022-09-12T02:57:21;16.97;;;12.17;;
13520;SDS011;6832;51.186;3.236;2022-09-12T02:59:48;13.70;;;11.37;;
13520;SDS011;6832;51.186;3.236;2022-09-12T03:02:26;14.70;;;11.40;;
13520;SDS011;6832;51.186;3.236;2022-09-12T03:05:23;13.83;;;11.57;;
13520;SDS011;6832;51.186;3.236;2022-09-12T03:08:06;15.40;;;11.20;;
13520;SDS011;6832;51.186;3.236;2022-09-12T03:13:38;15.43;;;11.87;;
13520;SDS011;6832;51.186;3.236;2022-09-12T03:16:14;16.50;;;11.50;;
13520;SDS011;6832;51.186;3.236;2022-09-12T03:18:50;16.13;;;12.00;;
13520;SDS011;6832;51.186;3.236;2022-09-12T03:21:27;17.43;;;12.53;;
13520;SDS011;6832;51.186;3.236;2022-09-12T03:24:08;16.37;;;11.80;;
13520;SDS011;6832;51.186;3.236;2022-09-12T03:26:40;16.20;;;11.80;;
13520;SDS011;6832;51.186;3.236;2022-09-12T03:29:12;17.93;;;12.70;;
13520;SDS011;6832;51.186;3.236;2022-09-12T03:31:48;16.33;;;11.43;;
13520;SDS011;6832;51.186;3.236;2022-09-12T03:34:20;17.43;;;11.53;;
13520;SDS011;6832;51.186;3.236;2022-09-12T03:36:50;15.43;;;12.10;;
13520;SDS011;6832;51.186;3.236;2022-09-12T03:39:20;13.73;;;11.67;;
13520;SDS011;6832;51.186;3.236;2022-09-12T03:44:21;13.23;;;10.80;;
13520;SDS011;6832;51.186;3.236;2022-09-12T03:46:49;13.30;;;10.93;;
13520;SDS011;6832;51.186;3.236;2022-09-12T03:49:16;20.10;;;13.10;;
13520;SDS011;6832;51.186;3.236;2022-09-12T03:51:44;16.77;;;12.20;;
13520;SDS011;6832;51.186;3.236;2022-09-12T03:54:13;17.10;;;12.20;;
13520;SDS011;6832;51.186;3.236;2022-09-12T03:56:41;17.73;;;12.27;;
13520;SDS011;6832;51.186;3.236;2022-09-12T03:59:08;15.03;;;11.47;;
13520;SDS011;6832;51.186;3.236;2022-09-12T04:01:36;19.30;;;12.43;;
13520;SDS011;6832;51.186;3.236;2022-09-12T04:04:05;18.03;;;12.17;;
13520;SDS011;6832;51.186;3.236;2022-09-12T04:06:32;13.27;;;10.90;;
13520;SDS011;6832;51.186;3.236;2022-09-12T04:08:59;16.07;;;11.60;;
13520;SDS011;6832;51.186;3.236;2022-09-12T04:11:29;16.90;;;12.07;;
13520;SDS011;6832;51.186;3.236;2022-09-12T04:13:59;13.67;;;10.67;;
13520;SDS011;6832;51.186;3.236;2022-09-12T04:16:26;19.67;;;12.37;;
13520;SDS011;6832;51.186;3.236;2022-09-12T04:18:53;13.27;;;9.80;;
13520;SDS011;6832;51.186;3.236;2022-09-12T04:21:21;18.33;;;11.40;;
13520;SDS011;6832;51.186;3.236;2022-09-12T04:23:49;20.37;;;12.50;;
13520;SDS011;6832;51.186;3.236;2022-09-12T04:26:19;15.13;;;11.50;;
13520;SDS011;6832;51.186;3.236;2022-09-12T04:28:51;12.90;;;10.10;;
13520;SDS011;6832;51.186;3.236;2022-09-12T04:31:22;15.73;;;11.07;;
13520;SDS011;6832;51.186;3.236;2022-09-12T04:33:52;18.20;;;12.50;;
13520;SDS011;6832;51.186;3.236;2022-09-12T04:36:19;18.37;;;11.67;;
13520;SDS011;6832;51.186;3.236;2022-09-12T04:38:47;18.33;;;12.30;;
13520;SDS011;6832;51.186;3.236;2022-09-12T04:41:15;15.37;;;11.30;;
13520;SDS011;6832;51.186;3.236;2022-09-12T04:43:44;15.03;;;10.97;;
13520;SDS011;6832;51.186;3.236;2022-09-12T04:46:22;12.30;;;9.93;;
13520;SDS011;6832;51.186;3.236;2022-09-12T04:48:55;12.47;;;10.27;;
13520;SDS011;6832;51.186;3.236;2022-09-12T04:51:23;15.20;;;10.87;;
13520;SDS011;6832;51.186;3.236;2022-09-12T04:53:56;17.13;;;11.87;;
13520;SDS011;6832;51.186;3.236;2022-09-12T04:56:24;11.43;;;9.27;;
13520;SDS011;6832;51.186;3.236;2022-09-12T04:58:57;14.73;;;11.03;;
13520;SDS011;6832;51.186;3.236;2022-09-12T05:01:27;21.00;;;12.50;;
13520;SDS011;6832;51.186;3.236;2022-09-12T05:03:56;15.17;;;10.63;;
13520;SDS011;6832;51.186;3.236;2022-09-12T05:06:44;27.60;;;15.17;;
13520;SDS011;6832;51.186;3.236;2022-09-12T05:09:45;12.87;;;10.63;;
13520;SDS011;6832;51.186;3.236;2022-09-12T05:12:17;12.97;;;10.53;;
13520;SDS011;6832;51.186;3.236;2022-09-12T05:14:47;19.40;;;12.17;;
13520;SDS011;6832;51.186;3.236;2022-09-12T05:17:16;16.07;;;10.57;;
13520;SDS011;6832;51.186;3.236;2022-09-12T05:19:43;15.17;;;11.37;;
13520;SDS011;6832;51.186;3.236;2022-09-12T05:22:15;22.40;;;13.00;;
13520;SDS011;6832;51.186;3.236;2022-09-12T05:24:43;16.00;;;11.37;;
13520;SDS011;6832;51.186;3.236;2022-09-12T05:27:10;19.17;;;12.73;;
13520;SDS011;6832;51.186;3.236;2022-09-12T05:29:38;19.80;;;11.77;;
13520;SDS011;6832;51.186;3.236;2022-09-12T05:32:28;18.00;;;11.40;;
13520;SDS011;6832;51.186;3.236;2022-09-12T05:35:06;14.53;;;12.00;;
13520;SDS011;6832;51.186;3.236;2022-09-12T05:37:35;16.83;;;11.33;;
13520;SDS011;6832;51.186;3.236;2022-09-12T05:40:08;18.20;;;11.97;;
13520;SDS011;6832;51.186;3.236;2022-09-12T05:42:38;15.50;;;10.83;;
13520;SDS011;6832;51.186;3.236;2022-09-12T05:45:08;13.70;;;10.97;;
13520;SDS011;6832;51.186;3.236;2022-09-12T05:47:44;15.23;;;11.63;;
13520;SDS011;6832;51.186;3.236;2022-09-12T05:56:23;15.13;;;11.47;;
13520;SDS011;6832;51.186;3.236;2022-09-12T05:58:57;21.40;;;12.83;;
13520;SDS011;6832;51.186;3.236;2022-09-12T06:01:32;17.37;;;11.97;;
13520;SDS011;6832;51.186;3.236;2022-09-12T06:07:19;17.77;;;12.50;;
13520;SDS011;6832;51.186;3.236;2022-09-12T06:10:05;14.37;;;10.30;;
13520;SDS011;6832;51.186;3.236;2022-09-12T06:16:11;17.20;;;10.77;;
13520;SDS011;6832;51.186;3.236;2022-09-12T06:21:49;14.20;;;11.07;;
13520;SDS011;6832;51.186;3.236;2022-09-12T06:24:26;17.30;;;11.03;;
13520;SDS011;6832;51.186;3.236;2022-09-12T06:26:56;17.23;;;11.03;;
13520;SDS011;6832;51.186;3.236;2022-09-12T06:32:30;15.37;;;10.67;;
13520;SDS011;6832;51.186;3.236;2022-09-12T06:34:59;26.13;;;13.70;;
13520;SDS011;6832;51.186;3.236;2022-09-12T06:37:30;20.40;;;11.70;;
13520;SDS011;6832;51.186;3.236;2022-09-12T06:40:05;15.40;;;11.57;;
13520;SDS011;6832;51.186;3.236;2022-09-12T06:43:10;32.13;;;15.27;;
13520;SDS011;6832;51.186;3.236;2022-09-12T06:48:58;13.93;;;10.37;;
13520;SDS011;6832;51.186;3.236;2022-09-12T06:51:28;11.40;;;9.67;;
13520;SDS011;6832;51.186;3.236;2022-09-12T07:00:06;16.57;;;10.47;;
13520;SDS011;6832;51.186;3.236;2022-09-12T07:02:52;18.60;;;11.50;;
13520;SDS011;6832;51.186;3.236;2022-09-12T07:05:29;16.17;;;11.00;;
13520;SDS011;6832;51.186;3.236;2022-09-12T07:10:31;18.93;;;11.17;;
13520;SDS011;6832;51.186;3.236;2022-09-12T07:13:47;16.83;;;11.03;;
13520;SDS011;6832;51.186;3.236;2022-09-12T07:16:18;16.40;;;11.07;;
13520;SDS011;6832;51.186;3.236;2022-09-12T07:22:22;14.30;;;10.77;;
13520;SDS011;6832;51.186;3.236;2022-09-12T07:24:50;14.43;;;10.37;;
13520;SDS011;6832;51.186;3.236;2022-09-12T07:27:27;17.27;;;10.53;;
13520;SDS011;6832;51.186;3.236;2022-09-12T07:32:27;14.57;;;10.30;;
13520;SDS011;6832;51.186;3.236;2022-09-12T07:34:56;14.70;;;10.50;;
13520;SDS011;6832;51.186;3.236;2022-09-12T07:37:37;17.90;;;10.97;;
13520;SDS011;6832;51.186;3.236;2022-09-12T07:42:50;10.90;;;8.47;;
13520;SDS011;6832;51.186;3.236;2022-09-12T07:45:44;11.70;;;8.67;;
13520;SDS011;6832;51.186;3.236;2022-09-12T07:48:13;16.07;;;10.37;;
13520;SDS011;6832;51.186;3.236;2022-09-12T07:50:43;10.93;;;9.07;;
13520;SDS011;6832;51.186;3.236;2022-09-12T07:53:17;21.97;;;10.93;;
13520;SDS011;6832;51.186;3.236;2022-09-12T07:55:57;12.83;;;9.70;;
13520;SDS011;6832;51.186;3.236;2022-09-12T07:58:28;13.23;;;9.23;;
13520;SDS011;6832;51.186;3.236;2022-09-12T08:01:04;15.13;;;8.57;;
13520;SDS011;6832;51.186;3.236;2022-09-12T08:03:41;14.23;;;9.70;;
13520;SDS011;6832;51.186;3.236;2022-09-12T08:06:25;12.33;;;8.93;;
13520;SDS011;6832;51.186;3.236;2022-09-12T08:09:14;17.17;;;10.30;;
13520;SDS011;6832;51.186;3.236;2022-09-12T08:11:45;11.17;;;9.00;;
13520;SDS011;6832;51.186;3.236;2022-09-12T08:17:23;11.57;;;8.63;;
13520;SDS011;6832;51.186;3.236;2022-09-12T08:20:13;12.93;;;8.13;;
13520;SDS011;6832;51.186;3.236;2022-09-12T08:23:11;10.17;;;8.00;;
13520;SDS011;6832;51.186;3.236;2022-09-12T08:25:58;12.20;;;7.77;;
13520;SDS011;6832;51.186;3.236;2022-09-12T08:32:08;9.33;;;7.17;;
13520;SDS011;6832;51.186;3.236;2022-09-12T08:36:09;9.93;;;7.77;;
13520;SDS011;6832;51.186;3.236;2022-09-12T08:44:16;9.93;;;7.53;;
13520;SDS011;6832;51.186;3.236;2022-09-12T08:50:29;7.33;;;5.53;;
13520;SDS011;6832;51.186;3.236;2022-09-12T08:53:20;12.20;;;6.90;;
13520;SDS011;6832;51.186;3.236;2022-09-12T08:55:56;27.13;;;11.50;;
13520;SDS011;6832;51.186;3.236;2022-09-12T09:04:48;10.87;;;6.20;;
13520;SDS011;6832;51.186;3.236;2022-09-12T09:07:30;10.13;;;6.27;;
13520;SDS011;6832;51.186;3.236;2022-09-12T09:10:16;8.93;;;5.83;;
13520;SDS011;6832;51.186;3.236;2022-09-12T09:13:46;9.80;;;5.93;;
13520;SDS011;6832;51.186;3.236;2022-09-12T09:19:25;13.70;;;6.50;;
13520;SDS011;6832;51.186;3.236;2022-09-12T09:22:07;6.43;;;5.07;;
13520;SDS011;6832;51.186;3.236;2022-09-12T09:25:14;9.03;;;5.43;;
13520;SDS011;6832;51.186;3.236;2022-09-12T09:27:56;9.07;;;5.97;;
13520;SDS011;6832;51.186;3.236;2022-09-12T09:30:33;8.73;;;5.40;;
13520;SDS011;6832;51.186;3.236;2022-09-12T09:36:45;6.90;;;4.57;;
13520;SDS011;6832;51.186;3.236;2022-09-12T09:39:47;6.43;;;4.27;;
13520;SDS011;6832;51.186;3.236;2022-09-12T09:42:42;7.50;;;4.83;;
13520;SDS011;6832;51.186;3.236;2022-09-12T09:45:19;12.37;;;6.57;;
13520;SDS011;6832;51.186;3.236;2022-09-12T09:47:55;7.77;;;5.03;;
13520;SDS011;6832;51.186;3.236;2022-09-12T09:50:28;7.17;;;5.07;;
13520;SDS011;6832;51.186;3.236;2022-09-12T09:53:04;6.83;;;4.57;;
13520;SDS011;6832;51.186;3.236;2022-09-12T09:59:46;12.13;;;5.63;;
13520;SDS011;6832;51.186;3.236;2022-09-12T10:02:25;7.47;;;4.20;;
13520;SDS011;6832;51.186;3.236;2022-09-12T10:04:55;12.60;;;5.87;;
13520;SDS011;6832;51.186;3.236;2022-09-12T10:07:48;7.23;;;5.10;;
13520;SDS011;6832;51.186;3.236;2022-09-12T10:10:32;9.43;;;5.83;;
13520;SDS011;6832;51.186;3.236;2022-09-12T10:16:20;8.00;;;4.60;;
13520;SDS011;6832;51.186;3.236;2022-09-12T10:18:54;10.23;;;5.17;;
13520;SDS011;6832;51.186;3.236;2022-09-12T10:21:40;7.10;;;3.73;;
13520;SDS011;6832;51.186;3.236;2022-09-12T10:24:31;7.93;;;4.17;;
13520;SDS011;6832;51.186;3.236;2022-09-12T10:27:15;6.87;;;4.23;;
13520;SDS011;6832;51.186;3.236;2022-09-12T10:29:48;6.13;;;4.07;;
13520;SDS011;6832;51.186;3.236;2022-09-12T10:32:27;6.40;;;4.33;;
13520;SDS011;6832;51.186;3.236;2022-09-12T10:35:03;7.97;;;4.47;;
13520;SDS011;6832;51.186;3.236;2022-09-12T10:38:09;6.80;;;4.00;;
13520;SDS011;6832;51.186;3.236;2022-09-12T10:40:54;9.97;;;5.47;;
13520;SDS011;6832;51.186;3.236;2022-09-12T10:44:12;6.27;;;3.97;;
13520;SDS011;6832;51.186;3.236;2022-09-12T10:46:42;10.27;;;5.57;;
13520;SDS011;6832;51.186;3.236;2022-09-12T10:49:39;6.93;;;3.93;;
13520;SDS011;6832;51.186;3.236;2022-09-12T10:54:51;6.03;;;3.87;;
13520;SDS011;6832;51.186;3.236;2022-09-12T10:57:27;4.73;;;3.13;;
13520;SDS011;6832;51.186;3.236;2022-09-12T11:00:09;9.90;;;4.53;;
13520;SDS011;6832;51.186;3.236;2022-09-12T11:03:12;6.40;;;4.40;;
13520;SDS011;6832;51.186;3.236;2022-09-12T11:06:14;6.53;;;3.90;;
13520;SDS011;6832;51.186;3.236;2022-09-12T11:08:50;6.57;;;3.37;;
13520;SDS011;6832;51.186;3.236;2022-09-12T11:14:29;7.90;;;3.40;;
13520;SDS011;6832;51.186;3.236;2022-09-12T11:17:20;6.83;;;3.20;;
13520;SDS011;6832;51.186;3.236;2022-09-12T11:20:14;5.07;;;2.20;;
13520;SDS011;6832;51.186;3.236;2022-09-12T11:26:29;6.60;;;3.40;;
13520;SDS011;6832;51.186;3.236;2022-09-12T11:29:20;7.10;;;3.80;;
13520;SDS011;6832;51.186;3.236;2022-09-12T11:32:27;9.57;;;4.30;;
13520;SDS011;6832;51.186;3.236;2022-09-12T11:35:42;4.67;;;2.97;;
13520;SDS011;6832;51.186;3.236;2022-09-12T11:38:36;3.57;;;2.00;;
13520;SDS011;6832;51.186;3.236;2022-09-12T11:41:36;4.03;;;2.83;;
13520;SDS011;6832;51.186;3.236;2022-09-12T11:44:16;4.43;;;2.77;;
13520;SDS011;6832;51.186;3.236;2022-09-12T11:46:48;5.17;;;3.20;;
13520;SDS011;6832;51.186;3.236;2022-09-12T11:49:18;9.97;;;3.43;;
13520;SDS011;6832;51.186;3.236;2022-09-12T11:51:55;3.37;;;2.53;;
13520;SDS011;6832;51.186;3.236;2022-09-12T11:54:29;4.13;;;2.93;;
13520;SDS011;6832;51.186;3.236;2022-09-12T11:57:07;5.80;;;3.53;;
13520;SDS011;6832;51.186;3.236;2022-09-12T11:59:48;4.37;;;2.87;;
13520;SDS011;6832;51.186;3.236;2022-09-12T12:02:21;6.43;;;3.90;;
13520;SDS011;6832;51.186;3.236;2022-09-12T12:05:01;4.50;;;3.00;;
13520;SDS011;6832;51.186;3.236;2022-09-12T12:07:38;4.87;;;3.20;;
13520;SDS011;6832;51.186;3.236;2022-09-12T12:10:20;6.63;;;3.10;;
13520;SDS011;6832;51.186;3.236;2022-09-12T12:12:54;6.07;;;3.13;;
13520;SDS011;6832;51.186;3.236;2022-09-12T12:15:34;4.43;;;2.70;;
13520;SDS011;6832;51.186;3.236;2022-09-12T12:18:05;5.43;;;3.20;;
13520;SDS011;6832;51.186;3.236;2022-09-12T12:20:36;4.83;;;3.40;;
13520;SDS011;6832;51.186;3.236;2022-09-12T12:23:05;6.90;;;3.78;;
13520;SDS011;6832;51.186;3.236;2022-09-12T12:25:52;5.07;;;3.07;;
13520;SDS011;6832;51.186;3.236;2022-09-12T12:31:37;6.65;;;3.28;;
13520;SDS011;6832;51.186;3.236;2022-09-12T12:34:41;3.60;;;2.40;;
13520;SDS011;6832;51.186;3.236;2022-09-12T12:40:33;4.65;;;2.90;;
13520;SDS011;6832;51.186;3.236;2022-09-12T12:43:02;7.33;;;4.10;;
13520;SDS011;6832;51.186;3.236;2022-09-12T12:46:10;6.10;;;3.67;;
13520;SDS011;6832;51.186;3.236;2022-09-12T12:48:52;3.22;;;2.00;;
13520;SDS011;6832;51.186;3.236;2022-09-12T12:51:28;6.15;;;3.15;;
13520;SDS011;6832;51.186;3.236;2022-09-12T12:54:01;5.82;;;3.65;;
13520;SDS011;6832;51.186;3.236;2022-09-12T12:56:33;7.60;;;3.72;;
13520;SDS011;6832;51.186;3.236;2022-09-12T12:59:15;9.02;;;4.20;;
13520;SDS011;6832;51.186;3.236;2022-09-12T13:05:03;5.45;;;3.42;;
13520;SDS011;6832;51.186;3.236;2022-09-12T13:07:34;6.28;;;3.83;;
13520;SDS011;6832;51.186;3.236;2022-09-12T13:10:05;5.22;;;3.47;;
13520;SDS011;6832;51.186;3.236;2022-09-12T13:12:47;5.38;;;3.65;;
13520;SDS011;6832;51.186;3.236;2022-09-12T13:18:48;6.93;;;3.47;;
13520;SDS011;6832;51.186;3.236;2022-09-12T13:21:23;7.38;;;4.20;;
13520;SDS011;6832;51.186;3.236;2022-09-12T13:24:03;4.78;;;2.60;;
13520;SDS011;6832;51.186;3.236;2022-09-12T13:26:41;4.18;;;2.80;;
13520;SDS011;6832;51.186;3.236;2022-09-12T13:29:20;8.27;;;4.30;;
13520;SDS011;6832;51.186;3.236;2022-09-12T13:31:54;3.33;;;2.47;;
13520;SDS011;6832;51.186;3.236;2022-09-12T13:34:29;4.93;;;3.35;;
13520;SDS011;6832;51.186;3.236;2022-09-12T13:37:07;7.68;;;4.43;;
13520;SDS011;6832;51.186;3.236;2022-09-12T13:39:48;8.20;;;4.75;;
13520;SDS011;6832;51.186;3.236;2022-09-12T13:45:11;4.75;;;3.03;;
13520;SDS011;6832;51.186;3.236;2022-09-12T13:47:46;5.13;;;2.53;;
13520;SDS011;6832;51.186;3.236;2022-09-12T13:50:21;5.13;;;2.85;;
13520;SDS011;6832;51.186;3.236;2022-09-12T13:52:51;5.75;;;3.60;;
13520;SDS011;6832;51.186;3.236;2022-09-12T13:55:24;5.55;;;3.40;;
13520;SDS011;6832;51.186;3.236;2022-09-12T13:57:58;5.85;;;2.72;;
13520;SDS011;6832;51.186;3.236;2022-09-12T14:00:27;5.38;;;3.42;;
13520;SDS011;6832;51.186;3.236;2022-09-12T14:02:56;6.13;;;3.35;;
13520;SDS011;6832;51.186;3.236;2022-09-12T14:08:28;4.88;;;2.90;;
13520;SDS011;6832;51.186;3.236;2022-09-12T14:11:07;4.97;;;3.20;;
13520;SDS011;6832;51.186;3.236;2022-09-12T14:14:35;9.52;;;4.93;;
13520;SDS011;6832;51.186;3.236;2022-09-12T14:17:14;5.70;;;3.50;;
13520;SDS011;6832;51.186;3.236;2022-09-12T14:19:45;4.70;;;2.67;;
13520;SDS011;6832;51.186;3.236;2022-09-12T14:22:14;5.00;;;2.83;;
13520;SDS011;6832;51.186;3.236;2022-09-12T14:24:42;4.53;;;2.67;;
13520;SDS011;6832;51.186;3.236;2022-09-12T14:27:19;4.97;;;3.00;;
13520;SDS011;6832;51.186;3.236;2022-09-12T14:29:51;4.68;;;2.60;;
13520;SDS011;6832;51.186;3.236;2022-09-12T14:32:27;4.90;;;2.90;;
13520;SDS011;6832;51.186;3.236;2022-09-12T14:35:05;4.00;;;2.30;;
13520;SDS011;6832;51.186;3.236;2022-09-12T14:37:49;5.07;;;3.00;;
13520;SDS011;6832;51.186;3.236;2022-09-12T14:40:20;6.07;;;3.67;;
13520;SDS011;6832;51.186;3.236;2022-09-12T14:42:49;5.03;;;2.97;;
13520;SDS011;6832;51.186;3.236;2022-09-12T14:45:23;6.00;;;3.00;;
13520;SDS011;6832;51.186;3.236;2022-09-12T14:47:54;3.43;;;1.93;;
13520;SDS011;6832;51.186;3.236;2022-09-12T14:50:35;3.60;;;2.20;;
13520;SDS011;6832;51.186;3.236;2022-09-12T14:53:06;3.80;;;2.63;;
13520;SDS011;6832;51.186;3.236;2022-09-12T14:56:06;5.80;;;2.30;;
13520;SDS011;6832;51.186;3.236;2022-09-12T14:58:35;4.23;;;2.47;;
13520;SDS011;6832;51.186;3.236;2022-09-12T15:07:14;6.10;;;3.20;;
13520;SDS011;6832;51.186;3.236;2022-09-12T15:09:48;6.00;;;2.97;;
13520;SDS011;6832;51.186;3.236;2022-09-12T15:12:24;4.53;;;2.47;;
13520;SDS011;6832;51.186;3.236;2022-09-12T15:14:56;4.60;;;2.70;;
13520;SDS011;6832;51.186;3.236;2022-09-12T15:17:32;6.90;;;3.20;;
13520;SDS011;6832;51.186;3.236;2022-09-12T15:20:01;4.17;;;2.63;;
13520;SDS011;6832;51.186;3.236;2022-09-12T15:22:34;4.30;;;2.47;;
13520;SDS011;6832;51.186;3.236;2022-09-12T15:25:11;6.10;;;3.47;;
13520;SDS011;6832;51.186;3.236;2022-09-12T15:27:43;3.80;;;2.30;;
13520;SDS011;6832;51.186;3.236;2022-09-12T15:30:15;6.40;;;3.10;;
13520;SDS011;6832;51.186;3.236;2022-09-12T15:32:43;6.27;;;3.40;;
13520;SDS011;6832;51.186;3.236;2022-09-12T15:35:19;6.80;;;3.43;;
13520;SDS011;6832;51.186;3.236;2022-09-12T15:37:48;5.60;;;3.03;;
13520;SDS011;6832;51.186;3.236;2022-09-12T15:40:19;9.17;;;4.53;;
13520;SDS011;6832;51.186;3.236;2022-09-12T15:42:48;4.60;;;2.83;;
13520;SDS011;6832;51.186;3.236;2022-09-12T15:45:26;5.37;;;3.13;;
13520;SDS011;6832;51.186;3.236;2022-09-12T15:48:04;3.50;;;1.80;;
13520;SDS011;6832;51.186;3.236;2022-09-12T15:50:35;4.27;;;2.07;;
13520;SDS011;6832;51.186;3.236;2022-09-12T15:53:07;4.90;;;2.87;;
13520;SDS011;6832;51.186;3.236;2022-09-12T15:55:48;5.17;;;2.37;;
13520;SDS011;6832;51.186;3.236;2022-09-12T15:58:22;4.40;;;2.47;;
13520;SDS011;6832;51.186;3.236;2022-09-12T16:00:52;5.37;;;2.63;;
13520;SDS011;6832;51.186;3.236;2022-09-12T16:03:20;3.87;;;2.23;;
13520;SDS011;6832;51.186;3.236;2022-09-12T16:05:51;4.47;;;2.43;;
13520;SDS011;6832;51.186;3.236;2022-09-12T16:08:25;6.10;;;2.10;;
13520;SDS011;6832;51.186;3.236;2022-09-12T16:10:57;5.00;;;2.67;;
13520;SDS011;6832;51.186;3.236;2022-09-12T16:13:33;1.83;;;1.37;;
13520;SDS011;6832;51.186;3.236;2022-09-12T16:16:01;5.27;;;2.77;;
13520;SDS011;6832;51.186;3.236;2022-09-12T16:18:33;4.07;;;2.30;;
13520;SDS011;6832;51.186;3.236;2022-09-12T16:21:16;4.30;;;2.20;;
13520;SDS011;6832;51.186;3.236;2022-09-12T16:23:47;6.73;;;2.67;;
13520;SDS011;6832;51.186;3.236;2022-09-12T16:26:21;3.00;;;1.73;;
13520;SDS011;6832;51.186;3.236;2022-09-12T16:28:53;7.83;;;3.53;;
13520;SDS011;6832;51.186;3.236;2022-09-12T16:31:22;5.30;;;2.90;;
13520;SDS011;6832;51.186;3.236;2022-09-12T16:33:51;3.47;;;1.93;;
13520;SDS011;6832;51.186;3.236;2022-09-12T16:36:25;7.10;;;3.07;;
13520;SDS011;6832;51.186;3.236;2022-09-12T16:38:55;3.70;;;1.90;;
13520;SDS011;6832;51.186;3.236;2022-09-12T16:41:24;4.30;;;1.80;;
13520;SDS011;6832;51.186;3.236;2022-09-12T16:43:55;4.63;;;2.37;;
13520;SDS011;6832;51.186;3.236;2022-09-12T16:46:25;6.87;;;3.20;;
13520;SDS011;6832;51.186;3.236;2022-09-12T16:48:56;5.43;;;2.87;;
13520;SDS011;6832;51.186;3.236;2022-09-12T16:51:25;3.17;;;1.90;;
13520;SDS011;6832;51.186;3.236;2022-09-12T16:53:53;5.03;;;2.53;;
13520;SDS011;6832;51.186;3.236;2022-09-12T16:56:21;4.20;;;2.30;;
13520;SDS011;6832;51.186;3.236;2022-09-12T16:58:53;4.93;;;2.80;;
13520;SDS011;6832;51.186;3.236;2022-09-12T17:01:30;1.90;;;1.30;;
13520;SDS011;6832;51.186;3.236;2022-09-12T17:04:09;8.00;;;3.60;;
13520;SDS011;6832;51.186;3.236;2022-09-12T17:06:57;5.07;;;2.27;;
13520;SDS011;6832;51.186;3.236;2022-09-12T17:10:16;5.07;;;2.40;;
13520;SDS011;6832;51.186;3.236;2022-09-12T17:12:49;1.87;;;1.20;;
13520;SDS011;6832;51.186;3.236;2022-09-12T17:15:28;6.57;;;2.40;;
13520;SDS011;6832;51.186;3.236;2022-09-12T17:17:57;4.20;;;1.67;;
13520;SDS011;6832;51.186;3.236;2022-09-12T17:21:00;4.53;;;1.67;;
13520;SDS011;6832;51.186;3.236;2022-09-12T17:23:54;3.67;;;1.83;;
13520;SDS011;6832;51.186;3.236;2022-09-12T17:26:59;4.23;;;1.43;;
13520;SDS011;6832;51.186;3.236;2022-09-12T17:30:25;4.63;;;2.17;;
13520;SDS011;6832;51.186;3.236;2022-09-12T17:38:53;5.97;;;1.73;;
13520;SDS011;6832;51.186;3.236;2022-09-12T17:41:25;27.27;;;11.40;;
13520;SDS011;6832;51.186;3.236;2022-09-12T17:44:32;3.00;;;1.60;;
13520;SDS011;6832;51.186;3.236;2022-09-12T17:47:09;9.17;;;3.80;;
13520;SDS011;6832;51.186;3.236;2022-09-12T17:53:02;3.07;;;1.40;;
13520;SDS011;6832;51.186;3.236;2022-09-12T17:55:37;6.43;;;3.33;;
13520;SDS011;6832;51.186;3.236;2022-09-12T17:58:39;3.10;;;1.90;;
13520;SDS011;6832;51.186;3.236;2022-09-12T18:01:24;9.00;;;4.17;;